createdAt,value
2022-09-11T00:01:27.789Z,63.61
2022-09-11T00:13:28.277Z,62.54
2022-09-11T00:25:28.735Z,62.94
2022-09-11T00:37:29.175Z,62.57
2022-09-11T00:49:29.660Z,60.47
2022-09-11T01:01:30.106Z,60.90
2022-09-11T01:13:30.583Z,65.25
2022-09-11T01:25:31.026Z,64.46
2022-09-11T01:37:31.472Z,63.21
2022-09-11T01:49:31.887Z,64.41
2022-09-11T02:01:33.376Z,62.13
2022-09-11T02:13:32.823Z,61.86
2022-09-11T02:25:33.298Z,65.04
2022-09-11T02:37:33.715Z,62.30
2022-09-11T02:49:34.191Z,63.12
2022-09-11T03:01:34.651Z,61.13
2022-09-11T03:13:35.068Z,62.62
2022-09-11T03:25:35.517Z,61.53
2022-09-11T03:37:36.018Z,63.44
2022-09-11T03:49:36.463Z,61.97
2022-09-11T04:01:36.892Z,64.24
2022-09-11T04:13:37.344Z,63.52
2022-09-11T04:25:37.864Z,62.28
2022-09-11T04:37:38.238Z,65.40
2022-09-11T04:49:38.687Z,63.38
2022-09-11T05:01:39.174Z,65.36
2022-09-11T05:13:39.685Z,68.92
2022-09-11T05:25:40.096Z,67.91
2022-09-11T05:37:40.552Z,64.57
2022-09-11T05:49:41.000Z,65.89
2022-09-11T06:01:41.517Z,65.10
2022-09-11T06:13:42.016Z,64.31
2022-09-11T06:25:42.363Z,62.05
2022-09-11T06:37:42.780Z,62.99
2022-09-11T06:49:43.302Z,61.66
2022-09-11T07:01:43.806Z,62.20
2022-09-11T07:13:44.248Z,60.16
2022-09-11T07:25:44.635Z,55.50
2022-09-11T07:37:50.205Z,50.35
2022-09-11T07:49:45.520Z,45.13
2022-09-11T08:01:46.010Z,41.93
2022-09-11T08:13:46.455Z,42.89
2022-09-11T08:25:46.920Z,43.34
2022-09-11T08:37:49.638Z,49.40
2022-09-11T08:49:47.818Z,43.88
2022-09-11T09:01:48.349Z,41.21
2022-09-11T09:13:48.919Z,42.39
2022-09-11T09:25:49.182Z,43.30
2022-09-11T09:37:49.641Z,42.45
2022-09-11T09:49:50.080Z,43.08
2022-09-11T10:01:50.650Z,45.73
2022-09-11T10:13:51.007Z,44.65
2022-09-11T10:25:51.456Z,39.92
2022-09-11T10:37:51.891Z,38.47
2022-09-11T10:49:52.387Z,40.06
2022-09-11T11:01:52.906Z,39.79
2022-09-11T11:13:53.278Z,40.03
2022-09-11T11:25:53.748Z,37.95
2022-09-11T11:37:54.193Z,43.78
2022-09-11T11:49:54.638Z,53.56
2022-09-11T12:01:55.145Z,58.86
2022-09-11T12:13:55.511Z,59.25
2022-09-11T12:25:56.042Z,58.84
2022-09-11T12:37:56.471Z,58.30
2022-09-11T12:49:56.915Z,51.50
2022-09-11T13:01:57.467Z,50.96
2022-09-11T13:13:57.823Z,48.07
2022-09-11T13:25:58.274Z,48.28
2022-09-11T13:37:58.722Z,47.74
2022-09-11T13:49:59.215Z,46.80
2022-09-11T14:01:59.695Z,48.04
2022-09-11T14:14:00.108Z,42.27
2022-09-11T14:26:00.584Z,44.24
2022-09-11T14:38:01.010Z,44.94
2022-09-11T14:50:01.499Z,43.40
2022-09-11T15:02:01.909Z,44.83
2022-09-11T15:14:16.343Z,44.42
2022-09-11T15:26:02.841Z,46.34
2022-09-11T15:38:03.319Z,43.71
2022-09-11T15:50:03.793Z,44.52
2022-09-11T16:02:04.271Z,44.57
2022-09-11T16:14:04.647Z,45.27
2022-09-11T16:26:05.169Z,45.51
2022-09-11T16:38:05.581Z,49.04
2022-09-11T16:50:08.122Z,46.56
2022-09-11T17:02:06.548Z,48.75
2022-09-11T17:14:06.993Z,52.06
2022-09-11T17:26:07.411Z,51.47
2022-09-11T17:38:07.849Z,53.32
2022-09-11T17:50:08.321Z,54.54
2022-09-11T18:02:08.841Z,55.00
2022-09-11T18:14:09.209Z,55.89
2022-09-11T18:26:09.832Z,56.50
2022-09-11T18:38:10.112Z,58.48
2022-09-11T18:50:10.585Z,59.53
2022-09-11T19:02:11.174Z,60.26
2022-09-11T19:14:11.487Z,59.16
2022-09-11T19:26:11.916Z,59.11
2022-09-11T19:38:12.420Z,58.36
2022-09-11T19:50:12.803Z,60.44
2022-09-11T20:02:13.488Z,59.58
2022-09-11T20:14:13.726Z,59.79
2022-09-11T20:26:17.207Z,60.02
2022-09-11T20:38:14.658Z,61.26
2022-09-11T20:50:15.113Z,59.54
2022-09-11T21:02:15.608Z,60.92
2022-09-11T21:14:16.020Z,61.32
2022-09-11T21:26:16.452Z,61.73
2022-09-11T21:38:16.942Z,62.49
2022-09-11T21:50:17.413Z,61.43
2022-09-11T22:02:17.943Z,62.81
2022-09-11T22:14:18.296Z,62.22
2022-09-11T22:26:18.753Z,61.88
2022-09-11T22:38:19.196Z,60.32
2022-09-11T22:50:19.684Z,64.10
2022-09-11T23:02:20.197Z,62.52
2022-09-11T23:14:20.580Z,64.20
2022-09-11T23:26:20.973Z,60.88
2022-09-11T23:38:21.514Z,62.18
2022-09-11T23:50:22.427Z,59.44
